• Join FlightAware (Why Join?)
  • Login
  • US Flag 
08:59PM EDT


 

Airport Tracker/Info


-or-


 

Live Flight TrackerFlight Track Log ✈ SKW6446 ✈ 03-May-2013 ✈ KSMX - KLAX

Flight Track Log - Related Links

Times and Time Zones

All times are in EDT time to prevent confusion due to time zone crossing. See the SKW6446 flight status page for this flight to view local times or setup timezone preferences in your user account.

Time Position Orientation Groundspeed Altitude Reporting Facility
EDT Latitude Longitude Course Direction KTS MPH feet Rate Location/Type
09:46PM 34.9103 -120.4906 283° West 185 213 2,100  Level Los Angeles Center
09:47PM 34.8583 -120.4683 161° South 212 244 4,000 1,740 Climbing Los Angeles Center
09:48PM 34.8108 -120.4356 150° Southeast 213 245 5,700 1,800 Climbing Los Angeles Center
09:49PM 34.7466 -120.1215 132° Southeast  Level Estimated
09:49PM 34.7542 -120.3986 152° Southeast 212 244 7,800  Level Los Angeles Center
09:50PM 34.7081 -120.0376 116° Southeast  Level Estimated
09:50PM 34.7117 -120.3542 139° Southeast 205 236 9,800  Level Los Angeles Center
09:51PM 34.6914 -120.2886 111° Southeast 205 236 11,200 1,200 Climbing Los Angeles Center
09:52PM 34.6611 -120.2192 118° Southeast 228 262 12,400 1,200 Climbing Los Angeles Center
09:53PM 34.6281 -120.1503 120° Southeast 235 270 13,700 1,140 Climbing Los Angeles Center
09:54PM 34.5928 -120.0750 120° Southeast 242 278 14,800 600 Climbing Los Angeles Center
09:55PM 34.5481 -119.9817 120° Southeast 264 304 15,000 60 Climbing Los Angeles Center
09:56PM 34.5094 -119.8986 119° Southeast 281 323 15,000  Level Los Angeles Center
09:57PM 34.4722 -119.8153 118° Southeast 282 325 15,000  Level Los Angeles Center
09:58PM 34.4347 -119.7331 119° Southeast 281 323 15,000  Level Los Angeles Center
09:59PM 34.3958 -119.6506 120° Southeast 281 323 15,000 -300 Level Los Angeles Center
10:00PM 34.3569 -119.5686 120° Southeast 281 323 14,500 -540 Descending Los Angeles Center
10:01PM 34.3208 -119.4894 119° Southeast 274 315 13,900 -720 Descending Los Angeles Center
10:02PM 34.2792 -119.3894 117° Southeast 280 322 13,100 -780 Descending Los Angeles Center
10:03PM 34.2408 -119.3089 120° Southeast 277 319 12,400 -720 Descending Los Angeles Center
10:04PM 34.2019 -119.2294 121° Southeast 275 316 11,700 -660 Descending Los Angeles Center
10:05PM 34.1653 -119.1522 120° Southeast 267 307 11,100 -360 Descending Los Angeles Center
10:06PM 34.1403 -119.0733 111° Southeast 252 290 11,000 -60 Descending Los Angeles Center
10:07PM 34.1275 -118.9928 101° East 245 282 11,000  Level Los Angeles Center
10:08PM 34.1067 -118.8969 105° East 246 283 11,000  Level Los Angeles Center
10:09PM 34.0883 -118.8156 105° East 251 289 11,000 -480 Level Los Angeles Center
10:10PM 34.0692 -118.7314 105° East 259 298 10,100 -540 Descending Los Angeles Center
10:11PM 34.0492 -118.6356 104° East 270 311 10,000 -540 Descending Los Angeles Center
10:12PM 34.0306 -118.5514 105° East 263 303 9,100 -1,260 Descending Los Angeles Center
10:13PM 34.0117 -118.4722 106° East 247 284 7,500 -1,500 Descending Los Angeles Center
10:14PM 34.0189 -118.4056 83° East 232 267 6,000 -1,560 Descending Los Angeles Center
10:15PM 34.0272 -118.3331 82° East 222 255 4,300 -1,920 Descending Los Angeles Center
10:16PM 33.9789 -118.3153 163° South 194 223 2,100 -2,160 Descending Los Angeles Center